Time;durP1;ratioP1;P1;durP2;ratioP2;P2;SDS_P1;SDS_P2;PMS_P1;PMS_P2;Temp;Humidity;BMP_temperature;BMP_pressure;BME280_temperature;BME280_humidity;BME280_pressure;Samples;Min_cycle;Max_cycle;Signal;HPM_P1;HPM_P2
2023/04/01 00:00:58;;;;;;;2.27;0.90;;;7.50;99.90;;;;;;4936650;29;20047;-86
2023/04/01 00:03:26;;;;;;;1.60;0.90;;;7.40;99.90;;;;;;4936587;29;20051;-85
2023/04/01 00:05:53;;;;;;;3.53;1.00;;;7.40;99.90;;;;;;4936924;29;20081;-85
2023/04/01 00:08:18;;;;;;;2.93;1.00;;;7.40;99.90;;;;;;4936139;29;20478;-85
2023/04/01 00:10:45;;;;;;;2.47;0.83;;;7.40;99.90;;;;;;4937086;29;20042;-84
2023/04/01 00:13:10;;;;;;;2.73;0.90;;;7.40;99.90;;;;;;4936346;29;20027;-85
2023/04/01 00:15:36;;;;;;;2.00;0.80;;;7.40;99.90;;;;;;4936983;29;20047;-85
2023/04/01 00:18:06;;;;;;;2.83;0.90;;;7.40;99.90;;;;;;4935598;29;20031;-85
2023/04/01 00:20:32;;;;;;;3.10;1.30;;;7.40;99.90;;;;;;4936755;29;20414;-85
2023/04/01 00:23:01;;;;;;;4.30;1.30;;;7.30;99.90;;;;;;4936578;29;20031;-85
2023/04/01 00:25:26;;;;;;;3.50;1.10;;;7.30;99.90;;;;;;4936085;29;20034;-85
2023/04/01 00:27:52;;;;;;;3.80;1.20;;;7.20;99.90;;;;;;4935693;29;20035;-85
2023/04/01 00:30:18;;;;;;;2.77;1.20;;;7.20;99.90;;;;;;4936632;29;20039;-85
2023/04/01 00:32:44;;;;;;;3.37;1.10;;;7.20;99.90;;;;;;4936133;29;20035;-85
2023/04/01 00:35:12;;;;;;;5.00;1.47;;;7.10;99.90;;;;;;4936859;29;20027;-85
2023/04/01 00:37:39;;;;;;;3.33;1.23;;;7.10;99.90;;;;;;4919532;29;20118;-85
2023/04/01 00:40:24;;;;;;;2.13;0.80;;;7.10;99.90;;;;;;4919961;29;20031;-84
2023/04/01 00:42:50;;;;;;;6.38;1.27;;;7.10;99.90;;;;;;4935527;28;20673;-85
2023/04/01 00:45:26;;;;;;;3.73;1.00;;;7.00;99.90;;;;;;4920214;29;20038;-85
2023/04/01 00:47:53;;;;;;;3.13;1.00;;;7.00;99.90;;;;;;4936145;29;20062;-85
2023/04/01 00:50:19;;;;;;;3.63;1.10;;;7.00;99.90;;;;;;4935334;29;20047;-85
2023/04/01 00:52:46;;;;;;;3.03;1.10;;;7.00;99.90;;;;;;4935649;29;20039;-84
2023/04/01 00:55:13;;;;;;;2.87;1.00;;;7.00;99.90;;;;;;4936211;29;20087;-85
2023/04/01 00:57:42;;;;;;;5.17;1.10;;;7.00;99.90;;;;;;4935676;28;20035;-85
2023/04/01 01:00:12;;;;;;;2.70;0.90;;;7.00;99.90;;;;;;4919437;29;20514;-85
2023/04/01 01:02:39;;;;;;;3.10;0.97;;;7.00;99.90;;;;;;4918308;29;20035;-86
2023/04/01 01:05:05;;;;;;;4.27;0.90;;;7.00;99.90;;;;;;4936065;29;20083;-85
2023/04/01 01:07:49;;;;;;;3.93;0.80;;;7.00;99.90;;;;;;4935708;29;20502;-85
2023/04/01 01:10:20;;;;;;;2.90;0.87;;;7.10;99.90;;;;;;4935464;29;20035;-84
2023/04/01 01:13:07;;;;;;;4.23;1.00;;;7.20;99.90;;;;;;4934762;29;20034;-85
2023/04/01 01:15:53;;;;;;;10.87;1.47;;;7.20;99.90;;;;;;4920394;29;20058;-85
2023/04/01 01:18:23;;;;;;;3.57;0.90;;;7.30;99.90;;;;;;4918900;29;20027;-84
2023/04/01 01:21:19;;;;;;;4.47;1.00;;;7.40;99.90;;;;;;4935510;29;20035;-84
2023/04/01 01:24:08;;;;;;;;;;;7.40;99.90;;;;;;4934897;29;20027;-85
2023/04/01 01:26:39;;;;;;;5.77;1.00;;;7.40;99.90;;;;;;4920073;29;19921;-84
2023/04/01 01:29:13;;;;;;;3.97;1.00;;;7.40;99.90;;;;;;4933386;29;20054;-85
2023/04/01 01:32:17;;;;;;;2.17;0.88;;;7.40;99.90;;;;;;4935532;29;20027;-85
2023/04/01 01:34:56;;;;;;;2.80;0.90;;;7.50;99.90;;;;;;4935034;29;20167;-85
2023/04/01 01:37:25;;;;;;;2.40;1.00;;;7.50;99.90;;;;;;4935049;28;20035;-85
2023/04/01 01:39:56;;;;;;;3.23;0.70;;;7.50;99.90;;;;;;4935483;29;20122;-85
2023/04/01 01:42:24;;;;;;;3.73;1.20;;;7.50;99.90;;;;;;4935196;28;20043;-85
2023/04/01 01:44:51;;;;;;;7.30;1.10;;;7.50;99.90;;;;;;4919122;29;20027;-85
2023/04/01 01:47:19;;;;;;;7.23;1.13;;;7.50;99.90;;;;;;4937155;28;20031;-86
2023/04/01 01:49:45;;;;;;;2.30;1.20;;;7.50;99.90;;;;;;4936863;28;20088;-85
2023/04/01 01:52:12;;;;;;;4.63;0.93;;;7.50;99.90;;;;;;4935657;29;20088;-85
2023/04/01 01:54:51;;;;;;;1.43;0.70;;;7.50;99.90;;;;;;4936122;29;20042;-84
2023/04/01 01:57:20;;;;;;;3.80;1.20;;;7.50;99.90;;;;;;4936384;28;20031;-85
2023/04/01 01:59:48;;;;;;;1.70;0.80;;;7.50;99.90;;;;;;4937063;28;20047;-85
2023/04/01 02:02:14;;;;;;;5.27;1.20;;;7.60;99.90;;;;;;4935756;29;20062;-84
2023/04/01 02:04:43;;;;;;;1.80;0.80;;;7.60;99.90;;;;;;4936054;29;20570;-85
2023/04/01 02:07:20;;;;;;;3.10;1.10;;;7.60;99.90;;;;;;4936536;28;20028;-85
2023/04/01 02:09:46;;;;;;;2.10;0.70;;;7.60;99.90;;;;;;4937096;28;20032;-85
2023/04/01 02:12:16;;;;;;;1.80;0.60;;;7.60;99.90;;;;;;4935831;28;20630;-85
2023/04/01 02:15:00;;;;;;;5.83;0.83;;;7.60;99.90;;;;;;4935313;28;20138;-85
2023/04/01 02:17:29;;;;;;;1.37;0.60;;;7.60;99.90;;;;;;4936853;29;20047;-85
2023/04/01 02:20:08;;;;;;;1.63;0.67;;;7.60;99.90;;;;;;4936914;29;20050;-84
2023/04/01 02:22:44;;;;;;;0.63;0.50;;;7.60;99.90;;;;;;4918877;29;20027;-85
2023/04/01 02:25:14;;;;;;;1.30;0.60;;;7.60;99.90;;;;;;4936361;28;20915;-85
2023/04/01 02:27:43;;;;;;;1.73;0.67;;;7.60;99.90;;;;;;4937303;29;20094;-85
2023/04/01 02:30:09;;;;;;;2.50;0.80;;;7.60;99.90;;;;;;4920172;29;20554;-85
2023/04/01 02:32:37;;;;;;;2.20;0.67;;;7.50;99.90;;;;;;4935962;29;20057;-85
2023/04/01 02:35:10;;;;;;;3.27;1.40;;;7.50;99.90;;;;;;4936242;29;20031;-85
2023/04/01 02:37:42;;;;;;;2.27;0.60;;;7.50;99.90;;;;;;4936439;29;20027;-85
2023/04/01 02:40:11;;;;;;;1.87;0.60;;;7.50;99.90;;;;;;4935858;29;20039;-85
2023/04/01 02:42:37;;;;;;;3.13;1.00;;;7.50;99.90;;;;;;4897539;29;1064977;-84
2023/04/01 02:45:03;;;;;;;2.13;1.03;;;7.40;99.90;;;;;;4917955;29;20122;-85
2023/04/01 02:47:29;;;;;;;2.10;1.00;;;7.40;99.90;;;;;;4934125;29;20150;-84
2023/04/01 02:49:58;;;;;;;2.10;0.93;;;7.40;99.90;;;;;;4917713;29;20027;-86
2023/04/01 02:52:25;;;;;;;3.17;1.00;;;7.30;99.90;;;;;;4933752;29;20036;-85
2023/04/01 02:54:50;;;;;;;2.43;0.83;;;7.30;99.90;;;;;;4918291;29;20088;-85
2023/04/01 02:57:16;;;;;;;1.33;0.63;;;7.30;99.90;;;;;;4919083;29;20585;-85
2023/04/01 02:59:41;;;;;;;2.13;0.97;;;7.20;99.90;;;;;;4933649;29;20039;-85
2023/04/01 03:02:07;;;;;;;1.63;0.70;;;7.30;99.90;;;;;;4933479;29;20027;-85
2023/04/01 03:04:33;;;;;;;0.93;0.70;;;7.30;99.90;;;;;;4933767;29;20122;-85
2023/04/01 03:06:58;;;;;;;1.33;0.70;;;7.30;99.90;;;;;;4918812;29;20462;-85
2023/04/01 03:09:24;;;;;;;2.80;0.70;;;7.40;99.90;;;;;;4933346;29;20035;-85
2023/04/01 03:11:50;;;;;;;1.57;0.60;;;7.30;99.90;;;;;;4917521;29;20087;-84
2023/04/01 03:14:15;;;;;;;1.03;0.50;;;7.30;99.90;;;;;;4933846;29;20106;-85
2023/04/01 03:16:41;;;;;;;1.10;0.57;;;7.30;99.90;;;;;;4934277;28;20035;-85
2023/04/01 03:19:06;;;;;;;1.83;0.60;;;7.30;99.90;;;;;;4933354;29;20390;-84
2023/04/01 03:21:32;;;;;;;0.80;0.50;;;7.30;99.90;;;;;;4933201;29;20184;-85
2023/04/01 03:23:58;;;;;;;0.83;0.50;;;7.20;99.90;;;;;;4933398;29;20035;-86
2023/04/01 03:26:24;;;;;;;0.50;0.50;;;7.20;99.90;;;;;;4936742;28;20201;-85
2023/04/01 03:28:49;;;;;;;1.27;0.60;;;7.10;99.90;;;;;;4921305;29;20471;-85
2023/04/01 03:31:15;;;;;;;0.50;0.50;;;7.10;99.90;;;;;;4937936;29;20043;-86
2023/04/01 03:33:42;;;;;;;0.80;0.60;;;7.10;99.90;;;;;;4937014;29;20035;-86
2023/04/01 03:36:08;;;;;;;1.47;0.53;;;7.00;99.90;;;;;;4937416;29;20047;-86
2023/04/01 03:38:34;;;;;;;0.40;0.40;;;7.00;99.90;;;;;;4937266;29;20040;-85
2023/04/01 03:41:00;;;;;;;1.90;0.80;;;7.00;99.90;;;;;;4937008;29;20530;-85
2023/04/01 03:43:26;;;;;;;3.07;0.50;;;7.00;99.90;;;;;;4936979;29;20090;-84
2023/04/01 03:45:54;;;;;;;0.77;0.50;;;7.00;99.90;;;;;;4937621;28;20035;-86
2023/04/01 03:48:19;;;;;;;1.43;0.80;;;7.00;99.90;;;;;;4936548;29;20253;-85
2023/04/01 03:50:46;;;;;;;0.47;0.40;;;7.00;99.90;;;;;;4937652;29;20039;-85
2023/04/01 03:53:13;;;;;;;1.17;0.60;;;6.90;99.90;;;;;;4935942;29;20454;-85
2023/04/01 03:55:39;;;;;;;0.43;0.40;;;6.90;99.90;;;;;;4937605;29;20039;-85
2023/04/01 03:58:06;;;;;;;0.70;0.60;;;6.80;99.90;;;;;;4936820;29;20035;-86
2023/04/01 04:00:31;;;;;;;1.43;0.60;;;6.80;99.90;;;;;;4937041;28;20061;-85
2023/04/01 04:02:58;;;;;;;0.67;0.60;;;6.80;99.90;;;;;;4936131;28;20694;-85
2023/04/01 04:05:24;;;;;;;2.30;0.90;;;6.80;99.90;;;;;;4937626;28;20040;-85
2023/04/01 04:07:50;;;;;;;2.47;0.60;;;6.70;99.90;;;;;;4936371;29;20042;-86
2023/04/01 04:10:16;;;;;;;2.80;0.70;;;6.70;99.90;;;;;;4937402;29;20035;-85
2023/04/01 04:12:41;;;;;;;1.70;0.80;;;6.80;99.90;;;;;;4920174;29;20035;-85
2023/04/01 04:15:08;;;;;;;1.80;0.80;;;6.80;99.90;;;;;;4936590;29;20187;-85
2023/04/01 04:17:33;;;;;;;1.13;0.60;;;6.80;99.90;;;;;;4936429;29;20042;-85
2023/04/01 04:19:59;;;;;;;2.33;0.80;;;6.80;99.90;;;;;;4937009;28;20047;-85
2023/04/01 04:22:25;;;;;;;2.07;0.70;;;6.90;99.90;;;;;;4936603;29;20539;-85
2023/04/01 04:24:50;;;;;;;3.03;0.80;;;6.90;99.90;;;;;;4935857;29;20470;-85
2023/04/01 04:27:16;;;;;;;1.23;0.70;;;6.90;99.90;;;;;;4936692;29;20121;-85
2023/04/01 04:29:42;;;;;;;1.43;0.60;;;6.90;99.90;;;;;;4936222;28;20122;-85
2023/04/01 04:32:07;;;;;;;1.10;0.60;;;6.90;99.90;;;;;;4935964;29;21429;-85
2023/04/01 04:34:34;;;;;;;2.13;0.70;;;7.00;99.90;;;;;;4936228;28;20040;-85
2023/04/01 04:37:00;;;;;;;2.60;0.70;;;7.00;99.90;;;;;;4935834;29;20448;-86
2023/04/01 04:39:25;;;;;;;1.33;0.60;;;7.00;99.90;;;;;;4936115;29;20046;-85
2023/04/01 04:41:51;;;;;;;2.23;0.90;;;7.10;99.90;;;;;;4917122;29;20521;-86
2023/04/01 04:44:16;;;;;;;2.73;0.60;;;7.10;99.90;;;;;;4916971;29;20031;-86
2023/04/01 04:46:42;;;;;;;1.47;0.70;;;7.10;99.90;;;;;;4917557;29;20043;-86
2023/04/01 04:49:10;;;;;;;3.13;1.13;;;7.10;99.90;;;;;;4917071;29;20039;-86
2023/04/01 04:51:36;;;;;;;1.33;0.90;;;7.30;99.90;;;;;;4916393;29;20031;-85
2023/04/01 04:54:03;;;;;;;1.57;0.80;;;7.40;99.90;;;;;;4916302;29;20035;-85
2023/04/01 04:56:28;;;;;;;1.73;0.80;;;7.30;99.90;;;;;;4916703;29;20043;-86
2023/04/01 04:58:54;;;;;;;4.00;0.83;;;7.40;99.90;;;;;;4914517;29;20032;-86
2023/04/01 05:01:20;;;;;;;3.03;0.80;;;7.50;99.90;;;;;;4916785;29;20043;-86
2023/04/01 05:03:46;;;;;;;1.07;0.70;;;7.50;99.90;;;;;;4919300;29;21322;-85
2023/04/01 05:06:14;;;;;;;2.00;0.67;;;7.50;99.90;;;;;;4918504;29;20476;-85
2023/04/01 05:08:42;;;;;;;3.80;0.97;;;7.50;99.90;;;;;;4919093;29;20036;-86
2023/04/01 05:11:14;;;;;;;3.30;0.83;;;7.50;99.90;;;;;;4917448;29;20035;-86
2023/04/01 05:13:42;;;;;;;3.13;1.03;;;7.50;99.90;;;;;;4918276;29;20123;-86
2023/04/01 05:16:13;;;;;;;2.03;0.90;;;7.50;99.90;;;;;;4919325;29;20031;-86
2023/04/01 05:18:39;;;;;;;1.97;0.90;;;7.50;99.90;;;;;;4919004;29;20094;-86
2023/04/01 05:21:08;;;;;;;3.37;1.20;;;7.50;99.90;;;;;;4918795;29;20483;-86
2023/04/01 05:23:34;;;;;;;4.17;1.40;;;7.50;99.90;;;;;;4918341;29;20031;-84
2023/04/01 05:26:07;;;;;;;2.57;0.90;;;7.60;99.90;;;;;;4917168;29;20070;-85
2023/04/01 05:28:35;;;;;;;2.87;0.90;;;7.50;99.90;;;;;;4917092;29;20036;-86
2023/04/01 05:31:02;;;;;;;2.90;0.80;;;7.50;99.90;;;;;;4915754;29;20036;-86
2023/04/01 05:33:28;;;;;;;2.50;0.70;;;7.60;99.90;;;;;;4916708;29;20475;-86
2023/04/01 05:35:54;;;;;;;2.40;0.93;;;7.60;99.90;;;;;;4916640;29;20039;-86
2023/04/01 05:38:19;;;;;;;2.67;0.90;;;7.60;99.90;;;;;;4916676;29;20083;-86
2023/04/01 05:40:45;;;;;;;5.43;1.00;;;7.60;99.90;;;;;;4915145;29;20413;-85
2023/04/01 05:43:11;;;;;;;4.93;0.90;;;7.60;99.90;;;;;;4932724;28;20047;-85
2023/04/01 05:45:37;;;;;;;4.80;1.10;;;7.60;99.90;;;;;;4918461;29;20023;-86
2023/04/01 05:48:03;;;;;;;3.13;0.80;;;7.60;99.90;;;;;;4917654;29;20059;-87
2023/04/01 05:50:29;;;;;;;3.30;1.00;;;7.70;99.90;;;;;;4935615;29;20175;-87
2023/04/01 05:52:55;;;;;;;1.70;0.70;;;7.70;99.90;;;;;;4918291;29;20512;-86
2023/04/01 05:55:20;;;;;;;2.20;0.80;;;7.70;99.90;;;;;;4935003;29;20578;-86
2023/04/01 05:57:48;;;;;;;2.67;0.90;;;7.70;99.90;;;;;;4933951;29;20672;-86
2023/04/01 06:00:14;;;;;;;1.77;0.73;;;7.70;99.90;;;;;;4934261;29;20760;-87
2023/04/01 06:02:41;;;;;;;2.17;0.70;;;7.80;99.90;;;;;;4933663;29;20035;-89
2023/04/01 06:05:22;;;;;;;4.93;1.00;;;7.70;99.90;;;;;;4935465;29;21510;-85
2023/04/01 06:07:51;;;;;;;2.27;0.90;;;7.70;99.90;;;;;;4934021;29;20596;-84
2023/04/01 06:10:21;;;;;;;2.53;0.90;;;7.60;99.90;;;;;;4918399;29;20521;-87
2023/04/01 06:12:54;;;;;;;4.77;0.90;;;7.60;99.90;;;;;;4933788;29;20582;-87
2023/04/01 06:15:23;;;;;;;3.67;1.10;;;7.70;99.90;;;;;;4934904;29;20491;-88
2023/04/01 06:18:12;;;;;;;3.87;0.70;;;7.70;99.90;;;;;;4934294;29;20077;-86
2023/04/01 06:21:07;;;;;;;2.30;1.40;;;7.90;99.90;;;;;;4918469;29;20095;-86
2023/04/01 06:23:54;;;;;;;3.80;1.07;;;8.00;99.90;;;;;;4933281;29;20077;-86
2023/04/01 06:26:55;;;;;;;2.07;0.90;;;8.00;99.90;;;;;;4934789;28;20038;-86
2023/04/01 06:29:59;;;;;;;2.90;0.80;;;8.00;99.90;;;;;;4902139;28;20031;-86
2023/04/01 06:32:57;;;;;;;3.27;1.07;;;8.10;99.90;;;;;;4926831;28;20032;-85
2023/04/01 06:35:29;;;;;;;3.33;1.03;;;8.10;99.90;;;;;;4934657;29;20034;-86
2023/04/01 06:38:16;;;;;;;2.07;0.90;;;8.20;99.90;;;;;;4917163;29;20027;-86
2023/04/01 06:41:06;;;;;;;2.67;1.00;;;8.20;99.90;;;;;;4934357;29;20091;-86
2023/04/01 06:43:38;;;;;;;4.03;1.10;;;8.40;99.90;;;;;;4934973;29;20581;-84
2023/04/01 06:46:44;;;;;;;1.97;0.80;;;8.40;99.90;;;;;;4933343;29;20031;-87
2023/04/01 06:49:47;;;;;;;1.57;0.70;;;8.50;99.90;;;;;;4935176;29;20142;-85
2023/04/01 06:52:51;;;;;;;2.30;0.90;;;8.60;99.90;;;;;;4935097;29;20134;-85
2023/04/01 06:55:47;;;;;;;3.23;0.90;;;8.80;99.90;;;;;;4936397;28;20041;-87
2023/04/01 06:58:22;;;;;;;2.90;0.80;;;8.80;99.90;;;;;;4935611;29;20035;-85
2023/04/01 07:01:12;;;;;;;2.65;0.98;;;8.80;99.90;;;;;;4933253;28;20046;-82
2023/04/01 07:04:04;;;;;;;4.53;1.13;;;8.80;99.90;;;;;;4917186;29;20038;-86
2023/04/01 07:06:46;;;;;;;2.53;1.23;;;8.90;99.90;;;;;;4933368;29;20064;-87
2023/04/01 07:09:18;;;;;;;2.90;1.00;;;8.90;99.90;;;;;;4933254;29;20035;-89
2023/04/01 07:11:44;;;;;;;5.30;0.90;;;8.90;99.90;;;;;;4934378;29;20031;-90
2023/04/01 07:14:30;;;;;;;4.07;1.00;;;9.00;99.90;;;;;;4934514;29;20038;-85
2023/04/01 07:17:19;;;;;;;3.53;0.90;;;9.00;99.90;;;;;;4936254;29;20023;-86
2023/04/01 07:19:48;;;;;;;3.63;0.90;;;9.00;99.90;;;;;;4928833;29;20035;-89
2023/04/01 07:22:37;;;;;;;2.80;0.70;;;9.00;99.90;;;;;;4922922;29;20047;-88
2023/04/01 07:25:37;;;;;;;2.60;0.73;;;9.10;99.90;;;;;;4927286;29;20035;-89
2023/04/01 07:28:12;;;;;;;1.53;0.70;;;9.20;99.90;;;;;;4926494;28;20063;-90
2023/04/01 07:30:58;;;;;;;2.07;0.90;;;9.10;99.90;;;;;;4932941;29;20056;-87
2023/04/01 07:33:44;;;;;;;;;;;9.10;99.90;;;;;;4934980;29;20028;-87
2023/04/01 07:36:44;;;;;;;2.50;0.90;;;9.10;99.90;;;;;;4924131;29;19958;-86
2023/04/01 07:39:36;;;;;;;3.33;0.90;;;9.20;99.90;;;;;;4921328;29;20031;-93
2023/04/01 07:42:32;;;;;;;1.60;0.87;;;9.40;99.90;;;;;;4926225;29;20090;-94
2023/04/01 07:45:19;;;;;;;1.02;0.52;;;9.40;99.90;;;;;;4937872;28;20543;-93
2023/04/01 07:48:04;;;;;;;2.17;0.90;;;9.50;99.90;;;;;;4922059;29;20422;-93
2023/04/01 07:50:55;;;;;;;1.40;0.70;;;9.60;99.90;;;;;;4937211;29;20023;-91
2023/04/01 07:53:25;;;;;;;1.73;0.63;;;9.70;99.90;;;;;;4937250;29;20019;-92
2023/04/01 07:56:31;;;;;;;1.67;0.90;;;9.70;99.90;;;;;;4938118;29;20023;-93
2023/04/01 07:58:56;;;;;;;0.80;0.53;;;9.70;99.90;;;;;;4909378;29;20042;-93
2023/04/01 08:01:43;;;;;;;1.43;0.70;;;9.60;99.90;;;;;;4938057;29;20039;-92
2023/04/01 08:04:37;;;;;;;2.50;1.17;;;9.70;99.90;;;;;;4937476;29;20110;-93
2023/04/01 08:07:24;;;;;;;1.33;0.63;;;9.80;99.90;;;;;;4938809;29;20031;-91
2023/04/01 08:10:15;;;;;;;2.23;0.67;;;9.90;99.90;;;;;;4938441;29;20031;-93
2023/04/01 08:13:06;;;;;;;2.43;0.60;;;9.90;99.90;;;;;;4942269;28;20655;-92
2023/04/01 08:15:45;;;;;;;0.90;0.50;;;10.10;99.90;;;;;;4942103;29;20391;-93
2023/04/01 08:18:32;;;;;;;1.73;0.60;;;10.10;99.90;;;;;;4940525;29;20927;-91
2023/04/01 08:21:03;;;;;;;1.37;0.50;;;10.20;99.90;;;;;;4940878;29;20735;-92
2023/04/01 08:23:50;;;;;;;1.93;0.60;;;10.30;99.90;;;;;;4923696;29;20435;-94
2023/04/01 08:26:36;;;;;;;1.47;0.60;;;10.50;99.90;;;;;;4923101;29;20135;-91
2023/04/01 08:29:07;;;;;;;;;;;10.50;99.90;;;;;;4928479;29;20030;-92
2023/04/01 08:31:53;;;;;;;1.07;0.50;;;10.60;99.90;;;;;;4938803;29;19962;-93
2023/04/01 08:34:26;;;;;;;2.37;1.20;;;10.60;99.90;;;;;;4939809;29;20036;-94
2023/04/01 08:37:04;;;;;;;0.67;0.47;;;10.60;99.90;;;;;;4925643;29;20030;-92
2023/04/01 08:39:35;;;;;;;1.63;0.50;;;10.50;99.90;;;;;;4924228;29;20119;-91
2023/04/01 08:42:09;;;;;;;1.37;0.50;;;10.60;99.90;;;;;;4939631;29;20170;-92
2023/04/01 08:45:02;;;;;;;1.60;0.80;;;10.80;99.90;;;;;;4938527;29;20032;-92
2023/04/01 08:48:01;;;;;;;2.07;0.50;;;10.90;99.90;;;;;;4938983;29;20202;-92
2023/04/01 08:50:45;;;;;;;1.87;0.60;;;11.00;99.90;;;;;;4941153;29;20105;-93
2023/04/01 08:53:35;;;;;;;3.40;0.50;;;11.10;99.90;;;;;;4938612;29;20035;-93
2023/04/01 08:56:20;;;;;;;1.73;0.50;;;11.20;99.90;;;;;;4940989;29;20035;-92
2023/04/01 08:58:57;;;;;;;1.17;0.63;;;11.30;99.90;;;;;;4941250;28;20127;-94
2023/04/01 09:01:46;;;;;;;1.75;0.52;;;11.20;99.90;;;;;;4941130;29;20191;-92
2023/04/01 09:04:17;;;;;;;0.98;0.47;;;11.40;99.90;;;;;;4938411;29;20133;-92
2023/04/01 09:07:10;;;;;;;0.87;0.53;;;11.40;99.90;;;;;;4939171;29;20042;-93
2023/04/01 09:10:12;;;;;;;1.55;0.45;;;11.50;99.90;;;;;;4939334;29;20426;-93
2023/04/01 09:12:55;;;;;;;1.02;0.50;;;11.50;99.90;;;;;;4923614;29;20031;-90
2023/04/01 09:15:28;;;;;;;0.57;0.57;;;11.70;99.90;;;;;;4938783;29;20406;-91
2023/04/01 09:18:15;;;;;;;3.72;0.73;;;11.80;99.90;;;;;;4937538;29;20057;-94
2023/04/01 09:21:08;;;;;;;1.23;0.38;;;11.60;99.90;;;;;;4938101;28;20060;-92
2023/04/01 09:23:48;;;;;;;1.17;0.50;;;11.70;99.90;;;;;;4936707;28;20024;-93
2023/04/01 09:26:34;;;;;;;0.30;0.30;;;11.80;99.90;;;;;;4938865;29;20090;-91
2023/04/01 09:29:34;;;;;;;0.47;0.40;;;11.80;99.90;;;;;;4938073;28;20490;-91
2023/04/01 09:32:19;;;;;;;0.82;0.50;;;11.80;99.90;;;;;;4939799;28;20071;-95
2023/04/01 09:35:13;;;;;;;0.38;0.38;;;11.80;99.90;;;;;;4944709;28;20132;-94
2023/04/01 09:37:51;;;;;;;3.10;0.77;;;11.70;99.90;;;;;;4921741;29;20587;-95
2023/04/01 09:40:37;;;;;;;1.02;0.40;;;11.70;99.90;;;;;;4933665;29;20039;-95
2023/04/01 09:43:21;;;;;;;1.05;0.50;;;11.80;99.90;;;;;;4920330;29;20083;-93
2023/04/01 09:45:52;;;;;;;1.92;0.60;;;12.00;99.90;;;;;;4926895;29;20032;-94
2023/04/01 09:48:50;;;;;;;0.40;0.32;;;12.30;99.90;;;;;;4922891;29;20035;-88
2023/04/01 09:51:44;;;;;;;0.80;0.40;;;12.40;99.90;;;;;;4916168;29;20173;-84
2023/04/01 09:54:28;;;;;;;0.30;0.30;;;12.50;99.90;;;;;;4918725;29;20028;-93
2023/04/01 09:57:06;;;;;;;0.98;0.50;;;12.30;99.90;;;;;;4919793;29;20115;-94
2023/04/01 10:00:05;;;;;;;1.15;0.85;;;12.10;99.90;;;;;;4918434;29;20039;-93
2023/04/01 10:03:08;;;;;;;0.55;0.40;;;12.20;99.90;;;;;;4919736;29;20070;-93
2023/04/01 10:05:46;;;;;;;0.45;0.40;;;12.30;99.90;;;;;;4921912;29;20680;-92
2023/04/01 10:08:51;;;;;;;1.08;0.50;;;12.60;99.90;;;;;;4919400;29;20062;-93
2023/04/01 10:11:26;;;;;;;0.77;0.47;;;12.50;99.90;;;;;;4919192;29;20039;-93
2023/04/01 10:14:19;;;;;;;0.30;0.30;;;12.50;99.90;;;;;;4916622;29;20024;-92
2023/04/01 10:17:11;;;;;;;0.50;0.40;;;12.50;99.90;;;;;;4918663;29;20027;-92
2023/04/01 10:20:15;;;;;;;1.48;0.45;;;12.40;99.90;;;;;;4918934;29;20079;-92
2023/04/01 10:22:47;;;;;;;7.05;0.70;;;12.30;99.90;;;;;;4918882;29;20043;-90
2023/04/01 10:25:27;;;;;;;1.02;0.50;;;12.30;99.90;;;;;;4913695;29;20120;-83
2023/04/01 10:28:15;;;;;;;0.43;0.40;;;12.20;99.90;;;;;;4914141;29;20042;-85
2023/04/01 10:30:58;;;;;;;0.40;0.38;;;12.10;99.90;;;;;;4915682;29;20510;-83
2023/04/01 10:33:39;;;;;;;1.23;0.40;;;12.10;99.90;;;;;;4912764;29;20396;-83
2023/04/01 10:36:23;;;;;;;0.60;0.50;;;11.80;99.90;;;;;;4914049;29;20028;-83
2023/04/01 10:39:13;;;;;;;6.70;0.70;;;11.70;99.90;;;;;;4914858;29;20016;-83
2023/04/01 10:41:56;;;;;;;0.40;0.40;;;11.60;99.90;;;;;;4919332;29;20135;-85
2023/04/01 10:44:57;;;;;;;1.80;0.50;;;11.50;99.90;;;;;;4935714;29;20046;-83
2023/04/01 10:47:42;;;;;;;1.77;0.40;;;11.30;99.90;;;;;;4833607;29;20034;-83
2023/04/01 10:50:32;;;;;;;0.40;0.40;;;11.30;99.90;;;;;;4928256;29;20095;-81
2023/04/01 10:53:19;;;;;;;0.73;0.50;;;11.40;99.90;;;;;;4935359;29;20037;-79
2023/04/01 10:56:11;;;;;;;0.30;0.30;;;11.50;99.90;;;;;;4935986;28;20125;-76
2023/04/01 10:59:15;;;;;;;0.40;0.40;;;11.40;99.90;;;;;;4935050;29;20034;-79
2023/04/01 11:02:05;;;;;;;0.40;0.40;;;11.30;99.90;;;;;;4936119;29;20053;-83
2023/04/01 11:04:58;;;;;;;0.40;0.40;;;11.10;99.90;;;;;;4935556;29;20019;-83
2023/04/01 11:07:46;;;;;;;0.98;0.40;;;11.10;99.90;;;;;;4934376;29;20630;-82
2023/04/01 11:10:56;;;;;;;2.78;0.35;;;11.20;99.90;;;;;;4927223;29;20502;-83
2023/04/01 11:13:58;;;;;;;0.63;0.40;;;11.10;99.90;;;;;;4918019;29;20269;-84
2023/04/01 11:16:47;;;;;;;0.70;0.50;;;11.00;99.90;;;;;;4935372;28;20031;-83
2023/04/01 11:20:11;;;;;;;0.30;0.30;;;11.00;99.90;;;;;;4935098;29;20032;-83
2023/04/01 11:22:55;;;;;;;0.38;0.38;;;11.10;99.90;;;;;;4866518;29;20041;-84
2023/04/01 11:25:39;;;;;;;0.40;0.40;;;11.10;99.90;;;;;;4868111;29;20061;-82
2023/04/01 11:28:33;;;;;;;0.47;0.47;;;11.10;99.90;;;;;;4936320;29;20069;-84
2023/04/01 11:31:14;;;;;;;0.50;0.50;;;11.00;99.90;;;;;;4935125;29;20035;-83
2023/04/01 11:33:47;;;;;;;0.30;0.30;;;10.80;99.90;;;;;;4935140;29;20023;-83
2023/04/01 11:36:31;;;;;;;0.53;0.40;;;10.40;99.90;;;;;;4934095;29;20178;-83
2023/04/01 11:39:05;;;;;;;0.87;0.60;;;10.10;99.90;;;;;;4935162;28;20035;-84
2023/04/01 11:41:49;;;;;;;3.23;0.50;;;9.90;99.90;;;;;;4935002;29;21297;-85
2023/04/01 11:44:24;;;;;;;0.50;0.50;;;9.70;99.90;;;;;;4932280;28;20774;-88
2023/04/01 11:47:12;;;;;;;0.50;0.50;;;9.60;99.90;;;;;;4935490;28;20046;-89
2023/04/01 11:49:44;;;;;;;1.50;0.63;;;9.40;99.90;;;;;;4937584;29;20031;-89
2023/04/01 11:52:37;;;;;;;0.53;0.50;;;9.20;99.90;;;;;;4938328;29;20122;-90
2023/04/01 11:55:25;;;;;;;0.67;0.53;;;9.00;99.90;;;;;;4938051;29;20158;-91
2023/04/01 11:58:27;;;;;;;0.70;0.50;;;8.90;99.90;;;;;;4929783;29;20106;-91
2023/04/01 12:01:19;;;;;;;0.50;0.50;;;8.80;99.90;;;;;;4933239;29;20031;-90
2023/04/01 12:04:21;;;;;;;0.50;0.50;;;8.70;99.90;;;;;;4935924;29;20039;-93
2023/04/01 12:07:10;;;;;;;0.90;0.63;;;8.80;99.90;;;;;;4917612;29;20193;-91
2023/04/01 12:09:45;;;;;;;0.77;0.60;;;8.80;99.90;;;;;;4934396;28;20031;-89
2023/04/01 12:12:24;;;;;;;0.75;0.52;;;8.80;99.90;;;;;;4935252;29;20027;-91
2023/04/01 12:15:21;;;;;;;0.50;0.50;;;8.80;99.90;;;;;;4935210;29;20043;-89
2023/04/01 12:18:12;;;;;;;0.80;0.60;;;8.90;99.90;;;;;;4893179;29;20041;-89
2023/04/01 12:20:54;;;;;;;0.40;0.40;;;8.80;99.90;;;;;;4936974;28;20050;-87
2023/04/01 12:23:50;;;;;;;0.50;0.50;;;8.80;99.90;;;;;;4935172;29;20043;-88
2023/04/01 12:26:38;;;;;;;1.47;0.50;;;8.80;99.90;;;;;;4918031;29;20486;-87
2023/04/01 12:29:22;;;;;;;0.40;0.40;;;8.80;99.90;;;;;;4934554;29;20763;-88
2023/04/01 12:32:05;;;;;;;0.60;0.60;;;8.70;99.90;;;;;;4934662;29;20031;-86
2023/04/01 12:35:00;;;;;;;0.60;0.60;;;8.70;99.90;;;;;;4933029;28;20111;-88
2023/04/01 12:37:39;;;;;;;0.43;0.43;;;8.70;99.90;;;;;;4929693;29;20031;-88
2023/04/01 12:40:17;;;;;;;0.57;0.50;;;8.80;99.90;;;;;;4930716;29;20443;-88
2023/04/01 12:43:09;;;;;;;0.53;0.53;;;8.80;99.90;;;;;;4930860;29;20060;-88
2023/04/01 12:45:45;;;;;;;0.40;0.40;;;8.80;99.90;;;;;;4932286;29;20562;-88
2023/04/01 12:48:22;;;;;;;1.63;0.53;;;8.80;99.90;;;;;;4930228;28;20063;-88
2023/04/01 12:51:22;;;;;;;0.50;0.50;;;8.80;99.90;;;;;;4931334;28;20491;-86
2023/04/01 12:54:06;;;;;;;1.77;0.60;;;8.70;99.90;;;;;;4930651;29;20066;-86
2023/04/01 12:56:34;;;;;;;0.50;0.50;;;8.80;99.90;;;;;;4930172;29;20039;-85
2023/04/01 12:59:11;;;;;;;0.50;0.50;;;8.80;99.90;;;;;;4930042;28;20043;-87
2023/04/01 13:01:48;;;;;;;0.67;0.50;;;8.80;99.90;;;;;;4928806;29;20044;-87
2023/04/01 13:04:46;;;;;;;2.23;0.60;;;8.80;99.90;;;;;;4930532;28;20456;-87
2023/04/01 13:07:14;;;;;;;0.63;0.40;;;8.90;99.90;;;;;;4928281;29;20114;-87
2023/04/01 13:10:06;;;;;;;1.07;0.60;;;8.90;99.90;;;;;;4931309;29;20058;-85
2023/04/01 13:12:38;;;;;;;1.00;0.70;;;9.00;99.90;;;;;;4930951;29;20122;-86
2023/04/01 13:15:17;;;;;;;0.60;0.60;;;8.90;99.90;;;;;;4931112;29;20439;-85
2023/04/01 13:18:14;;;;;;;0.53;0.50;;;8.90;99.90;;;;;;4927960;29;20039;-85
2023/04/01 13:21:18;;;;;;;1.83;0.60;;;8.80;99.90;;;;;;4931163;29;20039;-87
2023/04/01 13:24:07;;;;;;;0.83;0.53;;;8.90;99.90;;;;;;4886082;29;20126;-85
2023/04/01 13:27:03;;;;;;;2.10;0.60;;;8.90;99.90;;;;;;4927888;29;21051;-85
2023/04/01 13:29:43;;;;;;;0.50;0.50;;;9.00;99.90;;;;;;4929297;29;20113;-85
2023/04/01 13:32:46;;;;;;;1.03;0.67;;;9.00;99.90;;;;;;4930380;29;20039;-85
2023/04/01 13:35:24;;;;;;;1.07;0.60;;;9.00;99.90;;;;;;4929981;29;20050;-86
2023/04/01 13:38:14;;;;;;;0.70;0.60;;;8.90;99.90;;;;;;4929202;28;20035;-86
2023/04/01 13:41:12;;;;;;;0.77;0.43;;;9.00;99.90;;;;;;4929623;28;20123;-85
2023/04/01 13:43:45;;;;;;;0.77;0.60;;;9.00;99.90;;;;;;4929384;29;20062;-86
2023/04/01 13:46:41;;;;;;;0.50;0.50;;;9.00;99.90;;;;;;4930605;29;20142;-85
2023/04/01 13:49:12;;;;;;;2.92;0.60;;;9.00;99.90;;;;;;4930487;29;20055;-85
2023/04/01 13:51:58;;;;;;;0.50;0.50;;;9.00;99.90;;;;;;4913962;29;20763;-86